CheckWX is a tool to help pilots better visualize weather data.  It is not intended as a substitute for an official pre-flight weather briefing.

01:03:51 UTC

FTTA METAR
Sarh Airport
Sarh, Chad
Current

1 hour ago

FTTA 240000Z 18006KT CAVOK 30/16 Q1010
Observed
Feb-24 @ 00:00 UTC
Wind
  • 180° at 6 KTS
Visibility
10,000+ meters
Flight Rules
VFR
Cloud Levels
  • Clear skies
Temperature
30°C / 86°F
Dewpoint
16°C / 61°F
Humidity
43%
Altimeter
29.82" Hg
Pressure
1009.92 hPa
Previous

2 hours ago

FTTA 232300Z 16004KT CAVOK 29/13 Q1010
Observed
Feb-23 @ 23:00 UTC
Wind
  • 160° at 4 KTS
Visibility
10,000+ meters
Flight Rules
VFR
Cloud Levels
  • Clear skies
Temperature
29°C / 84°F
Dewpoint
13°C / 55°F
Humidity
37%
Altimeter
29.82" Hg
Pressure
1009.92 hPa
Previous

3 hours ago

FTTA 232200Z 00000KT CAVOK 29/09 Q1009
Observed
Feb-23 @ 22:00 UTC
Visibility
10,000+ meters
Flight Rules
VFR
Cloud Levels
  • Clear skies
Temperature
29°C / 84°F
Dewpoint
C / 48°F
Humidity
29%
Altimeter
29.79" Hg
Pressure
1008.92 hPa